createdAt,value
2023-03-10T00:03:48.371Z,2.30
2023-03-10T00:09:53.382Z,2.53
2023-03-10T00:15:56.975Z,2.72
2023-03-10T00:22:00.437Z,2.15
2023-03-10T00:28:05.366Z,1.98
2023-03-10T00:34:09.276Z,2.67
2023-03-10T00:40:14.375Z,2.38
2023-03-10T00:46:19.729Z,2.13
2023-03-10T00:52:23.235Z,2.20
2023-03-10T00:58:26.854Z,2.10
2023-03-10T01:04:31.809Z,2.00
2023-03-10T01:10:35.356Z,2.40
2023-03-10T01:16:38.870Z,2.35
2023-03-10T01:22:44.510Z,2.08
2023-03-10T01:28:48.173Z,1.48
2023-03-10T01:34:51.624Z,1.13
2023-03-10T01:40:56.465Z,0.63
2023-03-10T01:47:00.295Z,0.70
2023-03-10T01:53:03.940Z,0.70
2023-03-10T01:59:09.349Z,0.90
2023-03-10T02:05:13.168Z,0.73
2023-03-10T02:11:17.103Z,0.73
2023-03-10T02:17:24.136Z,0.50
2023-03-10T02:23:33.299Z,0.40
2023-03-10T02:29:52.497Z,0.63
2023-03-10T02:36:05.176Z,0.65
2023-03-10T02:42:08.767Z,0.65
2023-03-10T02:48:14.848Z,0.50
2023-03-10T02:54:18.283Z,0.52
2023-03-10T03:00:22.171Z,0.63
2023-03-10T03:06:27.069Z,0.60
2023-03-10T03:12:30.489Z,0.80
2023-03-10T03:18:34.124Z,0.50
2023-03-10T03:24:39.068Z,0.60
2023-03-10T03:30:43.132Z,0.65
2023-03-10T03:36:46.629Z,0.50
2023-03-10T03:42:52.558Z,0.80
2023-03-10T03:48:56.089Z,1.00
2023-03-10T03:54:59.680Z,1.10
2023-03-10T04:01:04.493Z,0.80
2023-03-10T04:07:08.099Z,1.23
2023-03-10T04:13:11.529Z,1.00
2023-03-10T04:19:16.555Z,1.13
2023-03-10T04:25:20.236Z,1.42
2023-03-10T04:31:23.834Z,1.17
2023-03-10T04:37:28.715Z,1.30
2023-03-10T04:43:32.105Z,1.63
2023-03-10T04:49:35.938Z,2.08
2023-03-10T04:55:40.880Z,1.55
2023-03-10T05:01:44.412Z,1.67
2023-03-10T05:07:47.952Z,1.63
2023-03-10T05:13:52.898Z,1.33
2023-03-10T05:19:56.527Z,2.08
2023-03-10T05:26:00.036Z,1.30
2023-03-10T05:32:05.065Z,1.15
2023-03-10T05:38:08.519Z,1.92
2023-03-10T05:44:12.082Z,1.10
2023-03-10T05:50:17.467Z,0.90
2023-03-10T05:56:21.406Z,1.30
2023-03-10T06:02:24.935Z,1.27
2023-03-10T06:08:29.895Z,1.77
2023-03-10T06:14:33.336Z,1.67
2023-03-10T06:20:36.806Z,1.70
2023-03-10T06:26:41.879Z,1.42
2023-03-10T06:32:45.643Z,1.55
2023-03-10T06:38:49.431Z,1.50
2023-03-10T06:44:57.129Z,1.85
2023-03-10T06:51:00.938Z,2.13
2023-03-10T06:57:06.054Z,2.13
2023-03-10T07:03:11.621Z,1.98
2023-03-10T07:09:15.201Z,1.40
2023-03-10T07:15:18.912Z,0.98
2023-03-10T07:21:23.856Z,1.30
2023-03-10T07:27:27.297Z,1.17
2023-03-10T07:33:30.802Z,1.05
2023-03-10T07:39:35.613Z,1.30
2023-03-10T07:45:39.212Z,1.00
2023-03-10T07:51:42.691Z,1.05
2023-03-10T07:57:47.851Z,1.13
2023-03-10T08:03:51.651Z,1.00
2023-03-10T08:09:56.352Z,1.83
2023-03-10T08:16:01.993Z,2.15
2023-03-10T08:22:05.651Z,2.83
2023-03-10T08:28:09.093Z,2.58
2023-03-10T08:34:14.030Z,2.30
2023-03-10T08:40:17.866Z,1.73
2023-03-10T08:46:22.266Z,2.42
2023-03-10T08:52:27.122Z,2.40
2023-03-10T08:58:30.604Z,3.00
2023-03-10T09:04:33.993Z,2.55
2023-03-10T09:10:39.106Z,2.10
2023-03-10T09:16:42.799Z,1.95
2023-03-10T09:22:46.305Z,1.90
2023-03-10T09:28:51.284Z,1.67
2023-03-10T09:34:54.876Z,1.98
2023-03-10T09:41:04.143Z,1.77
2023-03-10T09:47:14.717Z,1.42
2023-03-10T09:53:27.588Z,1.40
2023-03-10T09:59:33.885Z,1.75
2023-03-10T10:05:39.554Z,1.98
2023-03-10T10:11:43.289Z,1.95
2023-03-10T10:17:58.378Z,1.58
2023-03-10T10:24:05.878Z,1.73
2023-03-10T10:30:33.064Z,1.27
2023-03-10T10:36:37.738Z,1.58
2023-03-10T10:42:53.595Z,1.23
2023-03-10T10:49:04.797Z,2.15
2023-03-10T10:55:08.665Z,1.38
2023-03-10T11:01:14.692Z,2.30
2023-03-10T11:07:20.001Z,1.92
2023-03-10T11:13:25.094Z,0.90
2023-03-10T11:19:33.725Z,0.95
2023-03-10T11:25:40.611Z,1.08
2023-03-10T11:31:47.592Z,1.25
2023-03-10T11:37:53.883Z,1.30
2023-03-10T11:43:58.719Z,1.55
2023-03-10T11:50:05.038Z,1.48
2023-03-10T11:56:11.230Z,2.20
2023-03-10T12:02:21.369Z,1.85
2023-03-10T12:08:26.340Z,5.25
2023-03-10T12:14:31.824Z,5.85
2023-03-10T12:20:35.794Z,0.70
2023-03-10T12:26:58.019Z,0.20
2023-03-10T12:33:03.491Z,0.40
2023-03-10T12:39:30.942Z,0.40
2023-03-10T12:45:38.300Z,0.80
2023-03-10T12:51:45.153Z,0.82
2023-03-10T12:58:02.097Z,0.82
2023-03-10T13:04:07.608Z,0.65
2023-03-10T13:10:18.164Z,0.65
2023-03-10T13:16:22.338Z,0.60
2023-03-10T13:22:25.768Z,0.90
2023-03-10T13:28:31.711Z,1.08
2023-03-10T13:34:36.845Z,2.13
2023-03-10T13:40:41.104Z,2.35
2023-03-10T13:46:49.765Z,2.10
2023-03-10T13:52:53.924Z,1.95
2023-03-10T13:58:59.457Z,3.42
2023-03-10T14:05:06.839Z,3.83
2023-03-10T14:11:26.764Z,3.42
2023-03-10T14:17:31.534Z,3.85
2023-03-10T14:23:38.792Z,1.40
2023-03-10T14:29:42.353Z,0.90
2023-03-10T14:35:46.601Z,0.85
2023-03-10T14:41:52.769Z,1.08
2023-03-10T14:47:57.179Z,1.27
2023-03-10T14:54:00.711Z,1.20
2023-03-10T15:00:06.845Z,1.10
2023-03-10T15:06:12.224Z,1.10
2023-03-10T15:12:18.238Z,1.10
2023-03-10T15:18:24.602Z,1.23
2023-03-10T15:24:28.072Z,1.42
2023-03-10T15:30:32.947Z,1.42
2023-03-10T15:36:37.904Z,1.60
2023-03-10T15:42:41.663Z,1.20
2023-03-10T15:48:45.249Z,1.00
2023-03-10T15:54:50.096Z,0.82
2023-03-10T16:00:53.709Z,0.82
2023-03-10T16:06:57.316Z,0.80
2023-03-10T16:13:02.952Z,0.75
2023-03-10T16:19:06.527Z,0.80
2023-03-10T16:25:10.971Z,0.60
2023-03-10T16:31:16.958Z,0.88
2023-03-10T16:37:20.380Z,0.90
2023-03-10T16:43:23.972Z,0.32
2023-03-10T16:49:28.819Z,0.70
2023-03-10T16:55:33.254Z,0.75
2023-03-10T17:01:36.859Z,0.70
2023-03-10T17:07:54.614Z,0.90
2023-03-10T17:13:59.792Z,1.20
2023-03-10T17:20:04.984Z,1.05
2023-03-10T17:26:11.008Z,1.27
2023-03-10T17:32:14.709Z,2.00
2023-03-10T17:38:18.228Z,1.80
2023-03-10T17:44:23.067Z,0.90
2023-03-10T17:50:26.610Z,1.60
2023-03-10T17:56:30.407Z,1.10
2023-03-10T18:02:35.342Z,1.30
2023-03-10T18:08:38.869Z,1.27
2023-03-10T18:14:42.452Z,1.50
2023-03-10T18:20:48.269Z,1.30
2023-03-10T18:26:51.811Z,0.98
2023-03-10T18:32:55.267Z,0.90
2023-03-10T18:39:00.234Z,0.70
2023-03-10T18:45:04.482Z,0.80
2023-03-10T18:51:08.427Z,1.10
2023-03-10T18:57:13.834Z,1.38
2023-03-10T19:03:17.485Z,1.00
2023-03-10T19:09:22.703Z,1.25
2023-03-10T19:15:28.327Z,1.05
2023-03-10T19:21:32.452Z,1.00
2023-03-10T19:27:40.936Z,1.00
2023-03-10T19:33:45.953Z,1.40
2023-03-10T19:39:49.375Z,1.88
2023-03-10T19:45:52.868Z,1.40
2023-03-10T19:51:57.676Z,1.40
2023-03-10T19:58:01.094Z,1.40
2023-03-10T20:04:05.255Z,1.35
2023-03-10T20:10:11.579Z,1.42
2023-03-10T20:16:16.363Z,1.45
2023-03-10T20:22:20.623Z,1.55
2023-03-10T20:28:25.861Z,1.50
2023-03-10T20:34:29.362Z,1.90
2023-03-10T20:40:32.786Z,2.00
2023-03-10T20:46:37.670Z,2.08
2023-03-10T20:52:42.412Z,1.75
2023-03-10T20:58:45.837Z,1.40
2023-03-10T21:04:50.691Z,1.77
2023-03-10T21:10:54.070Z,1.02
2023-03-10T21:16:59.953Z,1.20
2023-03-10T21:23:05.414Z,1.95
2023-03-10T21:29:09.071Z,1.23
2023-03-10T21:35:13.820Z,1.58
2023-03-10T21:41:23.602Z,1.20
2023-03-10T21:47:27.010Z,1.27
2023-03-10T21:53:30.609Z,1.10
2023-03-10T21:59:35.543Z,1.10
2023-03-10T22:05:38.976Z,1.08
2023-03-10T22:11:42.582Z,3.78
2023-03-10T22:17:48.073Z,2.55
2023-03-10T22:23:51.519Z,2.50
2023-03-10T22:29:54.978Z,1.65
2023-03-10T22:36:03.657Z,1.60
2023-03-10T22:42:07.269Z,2.20
2023-03-10T22:48:10.770Z,1.05
2023-03-10T22:54:15.548Z,1.65
2023-03-10T23:00:20.343Z,2.00
2023-03-10T23:06:24.583Z,1.98
2023-03-10T23:12:29.372Z,1.48
2023-03-10T23:18:32.781Z,2.13
2023-03-10T23:24:36.201Z,1.90
2023-03-10T23:30:42.816Z,1.95
2023-03-10T23:36:46.253Z,2.08
2023-03-10T23:42:49.770Z,1.60
2023-03-10T23:48:54.577Z,1.50
2023-03-10T23:54:58.072Z,2.28
